This is the latest recevied weather packets stored in our database for station/object KC0AFB. If no packets are shown the sender has not sent any weather packets the latest 10 day(s).
| Time | Temp. | Humidity | Pressure | Rain* | Wind** | Luminosity | Snow |
|---|---|---|---|---|---|---|---|
| 1778099423 | 10.56° C | 43% | 1015.3 hPa | 0 mm | - | 705 W/m² | - |
| 1778099120 | 11.11° C | 42% | 1015.3 hPa | 0 mm | - | 728 W/m² | - |
| 1778098817 | 10° C | 43% | 1015.4 hPa | 0 mm | - | 746 W/m² | - |
| 1778098515 | 9.44° C | 45% | 1015.4 hPa | 0 mm | - | 743 W/m² | - |
| 1778098211 | 8.89° C | 46% | 1015.4 hPa | 0 mm | - | 731 W/m² | - |
| 1778097907 | 8.33° C | 44% | 1015.3 hPa | 0 mm | - | 184 W/m² | - |
| 1778097604 | 8.89° C | 46% | 1015.4 hPa | 0 mm | - | 220 W/m² | - |
| 1778097301 | 8.33° C | 47% | 1015.5 hPa | 0 mm | - | 295 W/m² | - |
| 1778096996 | 7.78° C | 47% | 1015.8 hPa | 0 mm | - | 261 W/m² | - |
| 1778096694 | 8.33° C | 46% | 1015.5 hPa | 0 mm | - | 244 W/m² | - |
| 1778096385 | 8.33° C | 47% | 1015.9 hPa | 0 mm | - | 321 W/m² | - |
| 1778096083 | 8.89° C | 46% | 1015.6 hPa | 0 mm | - | 346 W/m² | - |
| 1778095779 | 8.33° C | 51% | 1016.1 hPa | 0 mm | - | 838 W/m² | - |
| 1778095476 | 8.33° C | 47% | 1015.9 hPa | 0 mm | - | 240 W/m² | - |
| 1778095173 | 7.78° C | 47% | 1015.9 hPa | 0 mm | - | 822 W/m² | - |
| 1778094869 | 8.33° C | 48% | 1016.1 hPa | 0 mm | - | 221 W/m² | - |
| 1778094566 | 7.22° C | 48% | 1016.1 hPa | 0 mm | - | 818 W/m² | - |
| 1778094263 | 7.78° C | 47% | 1016.2 hPa | 0 mm | - | 217 W/m² | - |
| 1778093960 | 8.89° C | 49% | 1016.2 hPa | 0 mm | - | 473 W/m² | - |
| 1778093657 | 8.89° C | 50% | 1016.1 hPa | 0 mm | - | 844 W/m² | - |
| 1778093354 | 8.33° C | 50% | 1016.3 hPa | 0 mm | - | 832 W/m² | - |
| 1778093051 | 6.67° C | 49% | 1016.4 hPa | 0 mm | - | 291 W/m² | - |
| 1778092748 | 7.78° C | 49% | 1016.7 hPa | 0 mm | - | 236 W/m² | - |
| 1778092443 | 7.22° C | 50% | 1016.7 hPa | 0 mm | - | 300 W/m² | - |
| 1778092141 | 7.78° C | 49% | 1016.9 hPa | 0 mm | - | 252 W/m² | - |
* Rain latest hour (hover to see other rain measurements)
** Current wind speed in m/s (hover to see current wind gust speed)